Hanjin Ottawa — DANM — position and weather

sailwx.info

Track history (hours):
 
Tides and Currents Weather Stations Pressure Air Temp Water Temp Dewpoint Dewpoint Depression Visibility Wind Speed Wind Dir Waves Ship Positions

Hanjin Ottawa

Last reported at 2015-Feb-27 02:33 UTC. Time now 2015-Mar-04 00:16 UTC.
Position N 31°06' E 122°34'.

Length 278.8 m; beam 40.3 m; draft 14 m.

Type: Ship. MMSI: 211378360.

Date/timePositionNaut miles runAvg speedWind from/ knotsBaromVisibWave heightAir tempDewpointWater temp
2015-Feb-27 02:33N 31°06' E 122°34'1212.3
2015-Feb-27 01:33N 31°06' E 122°20'1111.0
2015-Feb-27 00:33N 31°12' E 122°09'1212.1
2015-Feb-26 23:34N 31°16' E 121°55'1211.7
2015-Feb-26 22:33N 31°20' E 121°42'2 2.2
2015-Feb-26 21:31N 31°20' E 121°40'0 0.0
2015-Feb-26 20:33N 31°20' E 121°40'0 0.0
2015-Feb-26 19:33N 31°20' E 121°40'0 0.0
2015-Feb-26 18:32N 31°20' E 121°40'0 0.0
2015-Feb-26 17:29N 31°20' E 121°40'0 0.0
2015-Feb-26 16:32N 31°20' E 121°40'0 0.0
2015-Feb-26 15:31N 31°20' E 121°40'0 0.0
2015-Feb-26 14:31N 31°20' E 121°40'0 0.0
2015-Feb-26 13:33N 31°20' E 121°40'0 0.0
2015-Feb-26 12:33N 31°20' E 121°40'0 0.0
2015-Feb-26 11:34N 31°20' E 121°40'0 0.0
2015-Feb-26 10:33N 31°20' E 121°40'0 0.1
2015-Feb-26 09:33N 31°20' E 121°40'5 5.2
2015-Feb-26 08:33N 31°18' E 121°45'1111.3
2015-Feb-26 07:33N 31°15' E 121°58'1111.1
2015-Feb-26 06:33N 31°11' E 122°10'9 9.2
2015-Feb-26 05:33N 31°06' E 122°19'11 9.2
2015-Feb-26 04:24N 31°07' E 122°32'77 6.5
2015-Feb-25 16:32N 29°51' E 122°47'1312.9
2015-Feb-25 15:34N 29°41' E 122°38'1111.0
2015-Feb-25 14:33N 29°42' E 122°25'1111.3
2015-Feb-25 13:32N 29°48' E 122°14'1313.3
2015-Feb-25 12:33N 29°55' E 122°02'8 7.9
2015-Feb-25 11:32N 29°56' E 121°52'0 0.0
2015-Feb-25 10:16N 29°56' E 121°52'0 0.0
2015-Feb-25 09:28N 29°56' E 121°52'0 0.0
2015-Feb-25 08:33N 29°56' E 121°52'0 0.0
2015-Feb-25 07:33N 29°56' E 121°52'0 0.0
2015-Feb-25 06:29N 29°56' E 121°52'0 0.0
2015-Feb-25 05:17N 29°56' E 121°52'0 0.0
2015-Feb-25 04:16N 29°56' E 121°52'0 0.0
2015-Feb-25 03:19N 29°56' E 121°52'0 0.0
2015-Feb-25 02:31N 29°56' E 121°52'0 0.0
2015-Feb-25 00:21N 29°56' E 121°52'1 1.4
2015-Feb-24 23:34N 29°56' E 121°54'1110.7
2015-Feb-24 22:34N 29°55' E 122°06'1111.3
2015-Feb-24 21:33N 29°48' E 122°15'9 8.8
2015-Feb-24 20:33N 29°44' E 122°24'1111.1
2015-Feb-24 19:34N 29°49' E 122°36'  
Track history (hours):
 
Tides and Currents Weather Stations Pressure Air Temp Water Temp Dewpoint Dewpoint Depression Visibility Wind Speed Wind Dir Waves Ship Positions

Hanjin Ottawa

Last reported at 2015-Feb-27 02:33 UTC. Time now 2015-Mar-04 00:16 UTC.
Position N 31°06' E 122°34'.

Length 278.8 m; beam 40.3 m; draft 14 m.

Type: Ship. MMSI: 211378360.

Date/timePositionNaut miles runAvg speedWind from/ knotsBaromVisibWave heightAir tempDewpointWater temp
2015-Feb-27 02:33N 31°06' E 122°34'1212.3
2015-Feb-27 01:33N 31°06' E 122°20'1111.0
2015-Feb-27 00:33N 31°12' E 122°09'1212.1
2015-Feb-26 23:34N 31°16' E 121°55'1211.7
2015-Feb-26 22:33N 31°20' E 121°42'2 2.2
2015-Feb-26 21:31N 31°20' E 121°40'0 0.0
2015-Feb-26 20:33N 31°20' E 121°40'0 0.0
2015-Feb-26 19:33N 31°20' E 121°40'0 0.0
2015-Feb-26 18:32N 31°20' E 121°40'0 0.0
2015-Feb-26 17:29N 31°20' E 121°40'0 0.0
2015-Feb-26 16:32N 31°20' E 121°40'0 0.0
2015-Feb-26 15:31N 31°20' E 121°40'0 0.0
2015-Feb-26 14:31N 31°20' E 121°40'0 0.0
2015-Feb-26 13:33N 31°20' E 121°40'0 0.0
2015-Feb-26 12:33N 31°20' E 121°40'0 0.0
2015-Feb-26 11:34N 31°20' E 121°40'0 0.0
2015-Feb-26 10:33N 31°20' E 121°40'0 0.1
2015-Feb-26 09:33N 31°20' E 121°40'5 5.2
2015-Feb-26 08:33N 31°18' E 121°45'1111.3
2015-Feb-26 07:33N 31°15' E 121°58'1111.1
2015-Feb-26 06:33N 31°11' E 122°10'9 9.2
2015-Feb-26 05:33N 31°06' E 122°19'11 9.2
2015-Feb-26 04:24N 31°07' E 122°32'77 6.5
2015-Feb-25 16:32N 29°51' E 122°47'1312.9
2015-Feb-25 15:34N 29°41' E 122°38'1111.0
2015-Feb-25 14:33N 29°42' E 122°25'1111.3
2015-Feb-25 13:32N 29°48' E 122°14'1313.3
2015-Feb-25 12:33N 29°55' E 122°02'8 7.9
2015-Feb-25 11:32N 29°56' E 121°52'0 0.0
2015-Feb-25 10:16N 29°56' E 121°52'0 0.0
2015-Feb-25 09:28N 29°56' E 121°52'0 0.0
2015-Feb-25 08:33N 29°56' E 121°52'0 0.0
2015-Feb-25 07:33N 29°56' E 121°52'0 0.0
2015-Feb-25 06:29N 29°56' E 121°52'0 0.0
2015-Feb-25 05:17N 29°56' E 121°52'0 0.0
2015-Feb-25 04:16N 29°56' E 121°52'0 0.0
2015-Feb-25 03:19N 29°56' E 121°52'0 0.0
2015-Feb-25 02:31N 29°56' E 121°52'0 0.0
2015-Feb-25 00:21N 29°56' E 121°52'1 1.4
2015-Feb-24 23:34N 29°56' E 121°54'1110.7
2015-Feb-24 22:34N 29°55' E 122°06'1111.3
2015-Feb-24 21:33N 29°48' E 122°15'9 8.8
2015-Feb-24 20:33N 29°44' E 122°24'1111.1
2015-Feb-24 19:34N 29°49' E 122°36'  

Dump ship's entire track history